sensor_id;sensor_type;location;lat;lon;timestamp;pressure;altitude;pressure_sealevel;temperature;humidity
28648;BME280;17137;51.494;-0.262;2023-08-20T00:00:14;50052.15;;;-145.72;86.24
28648;BME280;17137;51.494;-0.262;2023-08-20T00:00:44;50050.18;;;-145.72;86.48
28648;BME280;17137;51.494;-0.262;2023-08-20T00:01:19;50066.70;;;-145.72;86.36
28648;BME280;17137;51.494;-0.262;2023-08-20T00:01:56;50050.18;;;-145.72;86.30
28648;BME280;17137;51.494;-0.262;2023-08-20T00:02:28;50035.02;;;-145.72;86.25
28648;BME280;17137;51.494;-0.262;2023-08-20T00:03:04;50048.70;;;-145.72;86.52
28648;BME280;17137;51.494;-0.262;2023-08-20T00:03:40;50044.02;;;-145.72;86.40
28648;BME280;17137;51.494;-0.262;2023-08-20T00:04:11;50042.54;;;-145.72;86.55
28648;BME280;17137;51.494;-0.262;2023-08-20T00:04:43;50052.89;;;-145.72;86.83
28648;BME280;17137;51.494;-0.262;2023-08-20T00:05:16;50055.73;;;-145.72;87.22
28648;BME280;17137;51.494;-0.262;2023-08-20T00:05:47;50054.37;;;-145.72;87.02
28648;BME280;17137;51.494;-0.262;2023-08-20T00:06:18;50044.27;;;-145.72;86.80
28648;BME280;17137;51.494;-0.262;2023-08-20T00:06:49;50046.11;;;-145.72;86.69
28648;BME280;17137;51.494;-0.262;2023-08-20T00:07:20;50045.99;;;-145.72;86.51
28648;BME280;17137;51.494;-0.262;2023-08-20T00:07:50;50045.87;;;-145.72;86.40
28648;BME280;17137;51.494;-0.262;2023-08-20T00:08:20;50039.46;;;-145.72;86.47
28648;BME280;17137;51.494;-0.262;2023-08-20T00:08:51;50036.01;;;-145.72;86.72
28648;BME280;17137;51.494;-0.262;2023-08-20T00:09:21;50056.59;;;-145.72;87.21
28648;BME280;17137;51.494;-0.262;2023-08-20T00:09:52;50044.76;;;-145.72;87.12
28648;BME280;17137;51.494;-0.262;2023-08-20T00:10:22;50052.77;;;-145.72;87.07
28648;BME280;17137;51.494;-0.262;2023-08-20T00:10:52;50053.39;;;-145.72;87.31
28648;BME280;17137;51.494;-0.262;2023-08-20T00:11:23;50054.87;;;-145.72;87.37
28648;BME280;17137;51.494;-0.262;2023-08-20T00:11:53;50055.24;;;-145.72;87.17
28648;BME280;17137;51.494;-0.262;2023-08-20T00:12:24;50051.91;;;-145.72;87.01
28648;BME280;17137;51.494;-0.262;2023-08-20T00:12:54;50048.33;;;-145.72;87.08
28648;BME280;17137;51.494;-0.262;2023-08-20T00:13:25;50056.34;;;-145.72;87.02
28648;BME280;17137;51.494;-0.262;2023-08-20T00:13:55;50057.33;;;-145.72;87.23
28648;BME280;17137;51.494;-0.262;2023-08-20T00:14:52;50044.27;;;-145.72;87.20
28648;BME280;17137;51.494;-0.262;2023-08-20T00:15:23;50061.03;;;-145.72;87.33
28648;BME280;17137;51.494;-0.262;2023-08-20T00:15:59;50052.15;;;-145.72;87.47
28648;BME280;17137;51.494;-0.262;2023-08-20T00:16:29;50061.15;;;-145.72;88.80
28648;BME280;17137;51.494;-0.262;2023-08-20T00:17:00;50059.55;;;-145.72;88.49
28648;BME280;17137;51.494;-0.262;2023-08-20T00:17:32;50050.43;;;-145.72;88.11
28648;BME280;17137;51.494;-0.262;2023-08-20T00:18:03;50055.36;;;-145.72;87.89
28648;BME280;17137;51.494;-0.262;2023-08-20T00:18:34;50056.10;;;-145.72;88.26
28648;BME280;17137;51.494;-0.262;2023-08-20T00:19:05;50059.92;;;-145.72;88.31
28648;BME280;17137;51.494;-0.262;2023-08-20T00:19:36;50050.92;;;-145.72;88.37
28648;BME280;17137;51.494;-0.262;2023-08-20T00:20:09;50055.61;;;-145.72;88.13
28648;BME280;17137;51.494;-0.262;2023-08-20T00:20:40;50050.67;;;-145.72;88.02
28648;BME280;17137;51.494;-0.262;2023-08-20T00:21:11;50052.65;;;-145.72;88.03
28648;BME280;17137;51.494;-0.262;2023-08-20T00:21:42;50059.55;;;-145.72;88.29
28648;BME280;17137;51.494;-0.262;2023-08-20T00:22:43;50046.61;;;-145.72;88.10
28648;BME280;17137;51.494;-0.262;2023-08-20T00:23:14;50046.73;;;-145.72;88.00
28648;BME280;17137;51.494;-0.262;2023-08-20T00:23:45;50050.67;;;-145.72;87.83
28648;BME280;17137;51.494;-0.262;2023-08-20T00:24:16;50047.84;;;-145.72;87.77
28648;BME280;17137;51.494;-0.262;2023-08-20T00:24:47;50059.55;;;-145.72;87.87
28648;BME280;17137;51.494;-0.262;2023-08-20T00:25:18;50048.58;;;-145.72;87.49
28648;BME280;17137;51.494;-0.262;2023-08-20T00:25:49;50048.83;;;-145.72;87.37
28648;BME280;17137;51.494;-0.262;2023-08-20T00:26:20;50041.43;;;-145.72;87.43
28648;BME280;17137;51.494;-0.262;2023-08-20T00:26:51;50046.73;;;-145.72;87.73
28648;BME280;17137;51.494;-0.262;2023-08-20T00:27:22;50055.48;;;-145.72;87.92
28648;BME280;17137;51.494;-0.262;2023-08-20T00:27:52;50066.45;;;-145.72;88.59
28648;BME280;17137;51.494;-0.262;2023-08-20T00:28:22;50052.52;;;-145.72;88.58
28648;BME280;17137;51.494;-0.262;2023-08-20T00:28:52;50064.85;;;-145.72;88.88
28648;BME280;17137;51.494;-0.262;2023-08-20T00:29:23;50072.37;;;-145.72;89.85
28648;BME280;17137;51.494;-0.262;2023-08-20T00:29:53;50068.55;;;-145.72;89.57
28648;BME280;17137;51.494;-0.262;2023-08-20T00:30:23;50068.92;;;-145.72;89.57
28648;BME280;17137;51.494;-0.262;2023-08-20T00:30:54;50061.65;;;-145.72;89.66
28648;BME280;17137;51.494;-0.262;2023-08-20T00:31:24;50066.33;;;-145.72;89.58
28648;BME280;17137;51.494;-0.262;2023-08-20T00:31:54;50060.91;;;-145.72;89.39
28648;BME280;17137;51.494;-0.262;2023-08-20T00:32:25;50061.03;;;-145.72;89.64
28648;BME280;17137;51.494;-0.262;2023-08-20T00:32:55;50067.07;;;-145.72;90.23
28648;BME280;17137;51.494;-0.262;2023-08-20T00:33:25;50065.96;;;-145.72;89.82
28648;BME280;17137;51.494;-0.262;2023-08-20T00:33:56;50058.69;;;-145.72;89.55
28648;BME280;17137;51.494;-0.262;2023-08-20T00:34:26;50058.69;;;-145.72;89.27
28648;BME280;17137;51.494;-0.262;2023-08-20T00:34:56;50054.50;;;-145.72;89.02
28648;BME280;17137;51.494;-0.262;2023-08-20T00:35:26;50061.03;;;-145.72;89.06
28648;BME280;17137;51.494;-0.262;2023-08-20T00:35:57;50057.58;;;-145.72;89.12
28648;BME280;17137;51.494;-0.262;2023-08-20T00:36:27;50050.92;;;-145.72;88.99
28648;BME280;17137;51.494;-0.262;2023-08-20T00:36:57;50059.18;;;-145.72;89.51
28648;BME280;17137;51.494;-0.262;2023-08-20T00:37:28;50059.30;;;-145.72;89.69
28648;BME280;17137;51.494;-0.262;2023-08-20T00:37:58;50062.63;;;-145.72;89.66
28648;BME280;17137;51.494;-0.262;2023-08-20T00:38:28;50063.37;;;-145.72;89.57
28648;BME280;17137;51.494;-0.262;2023-08-20T00:38:59;50053.51;;;-145.72;89.45
28648;BME280;17137;51.494;-0.262;2023-08-20T00:39:29;50053.63;;;-145.72;89.30
28648;BME280;17137;51.494;-0.262;2023-08-20T00:39:59;50063.37;;;-145.72;89.39
28648;BME280;17137;51.494;-0.262;2023-08-20T00:40:30;50058.69;;;-145.72;89.70
28648;BME280;17137;51.494;-0.262;2023-08-20T00:41:01;50066.08;;;-145.72;90.23
28648;BME280;17137;51.494;-0.262;2023-08-20T00:41:31;50063.99;;;-145.72;90.33
28648;BME280;17137;51.494;-0.262;2023-08-20T00:42:07;50071.14;;;-145.72;90.17
28648;BME280;17137;51.494;-0.262;2023-08-20T00:42:37;50070.03;;;-145.72;89.88
28648;BME280;17137;51.494;-0.262;2023-08-20T00:43:08;50060.91;;;-145.72;89.57
28648;BME280;17137;51.494;-0.262;2023-08-20T00:43:39;50054.99;;;-145.72;89.39
28648;BME280;17137;51.494;-0.262;2023-08-20T00:44:09;50060.41;;;-145.72;89.43
28648;BME280;17137;51.494;-0.262;2023-08-20T00:44:40;50065.71;;;-145.72;89.52
28648;BME280;17137;51.494;-0.262;2023-08-20T00:45:10;50063.99;;;-145.72;89.57
28648;BME280;17137;51.494;-0.262;2023-08-20T00:45:41;50060.91;;;-145.72;89.63
28648;BME280;17137;51.494;-0.262;2023-08-20T00:46:12;50069.04;;;-145.72;89.88
28648;BME280;17137;51.494;-0.262;2023-08-20T00:46:42;50066.82;;;-145.72;89.80
28648;BME280;17137;51.494;-0.262;2023-08-20T00:47:13;50062.75;;;-145.72;89.60
28648;BME280;17137;51.494;-0.262;2023-08-20T00:47:43;50064.36;;;-145.72;89.41
28648;BME280;17137;51.494;-0.262;2023-08-20T00:48:16;50060.29;;;-145.72;89.33
28648;BME280;17137;51.494;-0.262;2023-08-20T00:48:46;50053.88;;;-145.72;89.46
28648;BME280;17137;51.494;-0.262;2023-08-20T00:49:17;50055.11;;;-145.72;89.55
28648;BME280;17137;51.494;-0.262;2023-08-20T00:49:48;50065.59;;;-145.72;89.46
28648;BME280;17137;51.494;-0.262;2023-08-20T00:50:19;50060.91;;;-145.72;89.79
28648;BME280;17137;51.494;-0.262;2023-08-20T00:50:49;50069.41;;;-145.72;89.96
28648;BME280;17137;51.494;-0.262;2023-08-20T00:51:19;50055.36;;;-145.72;89.88
28648;BME280;17137;51.494;-0.262;2023-08-20T00:51:50;50063.74;;;-145.72;89.98
28648;BME280;17137;51.494;-0.262;2023-08-20T00:52:21;50068.05;;;-145.72;90.39
28648;BME280;17137;51.494;-0.262;2023-08-20T00:52:52;50056.47;;;-145.72;90.06
28648;BME280;17137;51.494;-0.262;2023-08-20T00:53:22;50068.42;;;-145.72;90.09
28648;BME280;17137;51.494;-0.262;2023-08-20T00:53:53;50056.71;;;-145.72;89.95
28648;BME280;17137;51.494;-0.262;2023-08-20T00:54:23;50066.21;;;-145.72;89.88
28648;BME280;17137;51.494;-0.262;2023-08-20T00:54:54;50059.43;;;-145.72;89.76
28648;BME280;17137;51.494;-0.262;2023-08-20T00:55:25;50066.21;;;-145.72;89.71
28648;BME280;17137;51.494;-0.262;2023-08-20T00:55:55;50062.63;;;-145.72;89.90
28648;BME280;17137;51.494;-0.262;2023-08-20T00:56:26;50067.56;;;-145.72;90.18
28648;BME280;17137;51.494;-0.262;2023-08-20T00:56:56;50069.16;;;-145.72;90.24
28648;BME280;17137;51.494;-0.262;2023-08-20T00:57:27;50054.99;;;-145.72;89.89
28648;BME280;17137;51.494;-0.262;2023-08-20T00:57:57;50066.70;;;-145.72;89.83
28648;BME280;17137;51.494;-0.262;2023-08-20T00:58:28;50064.36;;;-145.72;89.76
28648;BME280;17137;51.494;-0.262;2023-08-20T00:58:58;50061.77;;;-145.72;89.74
28648;BME280;17137;51.494;-0.262;2023-08-20T00:59:30;50066.08;;;-145.72;89.61
28648;BME280;17137;51.494;-0.262;2023-08-20T01:00:02;50053.51;;;-145.72;89.56
28648;BME280;17137;51.494;-0.262;2023-08-20T01:00:33;50081.61;;;-145.72;90.24
28648;BME280;17137;51.494;-0.262;2023-08-20T01:01:03;50066.58;;;-145.72;90.21
28648;BME280;17137;51.494;-0.262;2023-08-20T01:01:33;50070.40;;;-145.72;90.23
28648;BME280;17137;51.494;-0.262;2023-08-20T01:02:03;50050.55;;;-145.72;90.06
28648;BME280;17137;51.494;-0.262;2023-08-20T01:02:34;50063.62;;;-145.72;90.45
28648;BME280;17137;51.494;-0.262;2023-08-20T01:03:05;50070.89;;;-145.72;90.43
28648;BME280;17137;51.494;-0.262;2023-08-20T01:03:35;50064.23;;;-145.72;90.36
28648;BME280;17137;51.494;-0.262;2023-08-20T01:04:06;50061.65;;;-145.72;90.09
28648;BME280;17137;51.494;-0.262;2023-08-20T01:04:36;50067.19;;;-145.72;89.98
28648;BME280;17137;51.494;-0.262;2023-08-20T01:05:09;50070.77;;;-145.72;90.61
28648;BME280;17137;51.494;-0.262;2023-08-20T01:05:46;50066.33;;;-145.72;90.55
28648;BME280;17137;51.494;-0.262;2023-08-20T01:06:23;50069.16;;;-145.72;90.69
28648;BME280;17137;51.494;-0.262;2023-08-20T01:07:08;50059.06;;;-145.72;90.60
28648;BME280;17137;51.494;-0.262;2023-08-20T01:07:52;50054.50;;;-145.72;90.57
28648;BME280;17137;51.494;-0.262;2023-08-20T01:08:36;50062.26;;;-145.72;90.49
28648;BME280;17137;51.494;-0.262;2023-08-20T01:09:16;50069.78;;;-145.72;90.47
28648;BME280;17137;51.494;-0.262;2023-08-20T01:09:54;50064.48;;;-145.72;90.83
28648;BME280;17137;51.494;-0.262;2023-08-20T01:10:34;50075.57;;;-145.72;91.03
28648;BME280;17137;51.494;-0.262;2023-08-20T01:11:16;50071.14;;;-145.72;91.06
28648;BME280;17137;51.494;-0.262;2023-08-20T01:11:51;50074.83;;;-145.72;91.78
28648;BME280;17137;51.494;-0.262;2023-08-20T01:12:24;50064.85;;;-145.72;91.62
28648;BME280;17137;51.494;-0.262;2023-08-20T01:12:56;50070.52;;;-145.72;91.70
28648;BME280;17137;51.494;-0.262;2023-08-20T01:13:26;50068.05;;;-145.72;91.60
28648;BME280;17137;51.494;-0.262;2023-08-20T01:13:58;50075.94;;;-145.72;91.59
28648;BME280;17137;51.494;-0.262;2023-08-20T01:14:29;50072.49;;;-145.72;91.61
28648;BME280;17137;51.494;-0.262;2023-08-20T01:15:00;50078.78;;;-145.72;91.88
28648;BME280;17137;51.494;-0.262;2023-08-20T01:15:30;50075.45;;;-145.72;92.09
28648;BME280;17137;51.494;-0.262;2023-08-20T01:16:00;50075.45;;;-145.72;91.92
28648;BME280;17137;51.494;-0.262;2023-08-20T01:16:30;50074.34;;;-145.72;91.86
28648;BME280;17137;51.494;-0.262;2023-08-20T01:17:01;50063.25;;;-145.72;91.82
28648;BME280;17137;51.494;-0.262;2023-08-20T01:17:31;50082.35;;;-145.72;91.82
28648;BME280;17137;51.494;-0.262;2023-08-20T01:18:02;50072.99;;;-145.72;91.92
28648;BME280;17137;51.494;-0.262;2023-08-20T01:18:32;50078.66;;;-145.72;92.04
28648;BME280;17137;51.494;-0.262;2023-08-20T01:19:03;50061.65;;;-145.72;92.03
28648;BME280;17137;51.494;-0.262;2023-08-20T01:19:34;50070.27;;;-145.72;92.19
28648;BME280;17137;51.494;-0.262;2023-08-20T01:20:06;50072.12;;;-145.72;92.17
28648;BME280;17137;51.494;-0.262;2023-08-20T01:20:47;50080.26;;;-145.72;92.82
28648;BME280;17137;51.494;-0.262;2023-08-20T01:21:33;50082.72;;;-145.72;93.42
28648;BME280;17137;51.494;-0.262;2023-08-20T01:22:22;50091.97;;;-145.72;93.80
28648;BME280;17137;51.494;-0.262;2023-08-20T01:25:03;50091.97;;;-145.72;94.16
28648;BME280;17137;51.494;-0.262;2023-08-20T01:25:49;50102.20;;;-145.72;94.78
28648;BME280;17137;51.494;-0.262;2023-08-20T01:26:32;50092.71;;;-145.72;94.52
28648;BME280;17137;51.494;-0.262;2023-08-20T01:27:18;50082.23;;;-145.72;94.26
28648;BME280;17137;51.494;-0.262;2023-08-20T01:27:56;50076.31;;;-145.72;94.11
28648;BME280;17137;51.494;-0.262;2023-08-20T01:28:28;50085.06;;;-145.72;94.09
28648;BME280;17137;51.494;-0.262;2023-08-20T01:28:59;50074.22;;;-145.72;93.99
28648;BME280;17137;51.494;-0.262;2023-08-20T01:29:31;50083.59;;;-145.72;93.92
28648;BME280;17137;51.494;-0.262;2023-08-20T01:30:02;50077.67;;;-145.72;93.76
28648;BME280;17137;51.494;-0.262;2023-08-20T01:30:34;50073.60;;;-145.72;93.60
28648;BME280;17137;51.494;-0.262;2023-08-20T01:31:06;50078.29;;;-145.72;93.66
28648;BME280;17137;51.494;-0.262;2023-08-20T01:31:38;50075.45;;;-145.72;93.67
28648;BME280;17137;51.494;-0.262;2023-08-20T01:32:09;50082.97;;;-145.72;93.72
28648;BME280;17137;51.494;-0.262;2023-08-20T01:32:41;50083.22;;;-145.72;93.98
28648;BME280;17137;51.494;-0.262;2023-08-20T01:33:13;50078.16;;;-145.72;93.98
28648;BME280;17137;51.494;-0.262;2023-08-20T01:33:43;50078.90;;;-145.72;93.57
28648;BME280;17137;51.494;-0.262;2023-08-20T01:34:14;50073.97;;;-145.72;93.48
28648;BME280;17137;51.494;-0.262;2023-08-20T01:34:45;50087.16;;;-145.72;93.48
28648;BME280;17137;51.494;-0.262;2023-08-20T01:35:16;50069.66;;;-145.72;93.30
28648;BME280;17137;51.494;-0.262;2023-08-20T01:35:47;50072.99;;;-145.72;93.48
28648;BME280;17137;51.494;-0.262;2023-08-20T01:36:17;50073.85;;;-145.72;93.36
28648;BME280;17137;51.494;-0.262;2023-08-20T01:36:48;50078.29;;;-145.72;93.35
28648;BME280;17137;51.494;-0.262;2023-08-20T01:37:19;50082.85;;;-145.72;93.91
28648;BME280;17137;51.494;-0.262;2023-08-20T01:37:49;50069.66;;;-145.72;93.89
28648;BME280;17137;51.494;-0.262;2023-08-20T01:38:20;50091.84;;;-145.72;94.48
28648;BME280;17137;51.494;-0.262;2023-08-20T01:38:50;50090.24;;;-145.72;94.52
28648;BME280;17137;51.494;-0.262;2023-08-20T01:39:20;50067.56;;;-145.72;94.24
28648;BME280;17137;51.494;-0.262;2023-08-20T01:39:50;50074.83;;;-145.72;93.95
28648;BME280;17137;51.494;-0.262;2023-08-20T01:40:21;50068.55;;;-145.72;93.79
28648;BME280;17137;51.494;-0.262;2023-08-20T01:40:51;50081.37;;;-145.72;93.95
28648;BME280;17137;51.494;-0.262;2023-08-20T01:41:27;50082.35;;;-145.72;93.79
28648;BME280;17137;51.494;-0.262;2023-08-20T01:41:57;50087.41;;;-145.72;93.78
28648;BME280;17137;51.494;-0.262;2023-08-20T01:42:28;50082.23;;;-145.72;93.87
28648;BME280;17137;51.494;-0.262;2023-08-20T01:42:58;50088.27;;;-145.72;93.93
28648;BME280;17137;51.494;-0.262;2023-08-20T01:43:28;50079.27;;;-145.72;94.29
28648;BME280;17137;51.494;-0.262;2023-08-20T01:43:59;50067.32;;;-145.72;94.07
28648;BME280;17137;51.494;-0.262;2023-08-20T01:44:29;50078.78;;;-145.72;93.83
28648;BME280;17137;51.494;-0.262;2023-08-20T01:44:59;50067.93;;;-145.72;93.99
28648;BME280;17137;51.494;-0.262;2023-08-20T01:45:35;50067.68;;;-145.72;93.90
28648;BME280;17137;51.494;-0.262;2023-08-20T01:46:05;50077.92;;;-145.72;93.85
28648;BME280;17137;51.494;-0.262;2023-08-20T01:46:35;50086.42;;;-145.72;94.67
28648;BME280;17137;51.494;-0.262;2023-08-20T01:47:06;50082.72;;;-145.72;94.79
28648;BME280;17137;51.494;-0.262;2023-08-20T01:47:36;50087.78;;;-145.72;95.34
28648;BME280;17137;51.494;-0.262;2023-08-20T01:48:07;50086.05;;;-145.72;95.12
28648;BME280;17137;51.494;-0.262;2023-08-20T01:48:37;50096.16;;;-145.72;94.87
28648;BME280;17137;51.494;-0.262;2023-08-20T01:49:07;50077.67;;;-145.72;94.55
28648;BME280;17137;51.494;-0.262;2023-08-20T01:49:38;50082.72;;;-145.72;94.56
28648;BME280;17137;51.494;-0.262;2023-08-20T01:50:09;50079.64;;;-145.72;94.64
28648;BME280;17137;51.494;-0.262;2023-08-20T01:50:39;50082.48;;;-145.72;94.45
28648;BME280;17137;51.494;-0.262;2023-08-20T01:51:10;50073.23;;;-145.72;94.25
28648;BME280;17137;51.494;-0.262;2023-08-20T01:51:45;50078.66;;;-145.72;94.13
28648;BME280;17137;51.494;-0.262;2023-08-20T01:52:16;50075.57;;;-145.72;94.43
28648;BME280;17137;51.494;-0.262;2023-08-20T01:52:46;50073.97;;;-145.72;94.46
28648;BME280;17137;51.494;-0.262;2023-08-20T01:53:16;50080.63;;;-145.72;94.56
28648;BME280;17137;51.494;-0.262;2023-08-20T01:53:47;50086.05;;;-145.72;94.93
28648;BME280;17137;51.494;-0.262;2023-08-20T01:54:17;50089.26;;;-145.72;95.02
28648;BME280;17137;51.494;-0.262;2023-08-20T01:54:48;50086.67;;;-145.72;94.85
28648;BME280;17137;51.494;-0.262;2023-08-20T01:55:19;50091.35;;;-145.72;95.11
28648;BME280;17137;51.494;-0.262;2023-08-20T01:55:49;50090.86;;;-145.72;95.30
28648;BME280;17137;51.494;-0.262;2023-08-20T01:56:19;50080.01;;;-145.72;94.94
28648;BME280;17137;51.494;-0.262;2023-08-20T01:56:49;50077.42;;;-145.72;94.80
28648;BME280;17137;51.494;-0.262;2023-08-20T01:57:20;50075.82;;;-145.72;94.78
28648;BME280;17137;51.494;-0.262;2023-08-20T01:57:50;50077.67;;;-145.72;94.63
28648;BME280;17137;51.494;-0.262;2023-08-20T01:58:20;50081.61;;;-145.72;94.54
28648;BME280;17137;51.494;-0.262;2023-08-20T01:58:51;50076.56;;;-145.72;94.58
28648;BME280;17137;51.494;-0.262;2023-08-20T01:59:22;50088.27;;;-145.72;95.15
28648;BME280;17137;51.494;-0.262;2023-08-20T01:59:52;50083.83;;;-145.72;95.20
28648;BME280;17137;51.494;-0.262;2023-08-20T02:00:22;50089.87;;;-145.72;95.57
28648;BME280;17137;51.494;-0.262;2023-08-20T02:00:53;50084.33;;;-145.72;95.30
28648;BME280;17137;51.494;-0.262;2023-08-20T02:01:23;50074.46;;;-145.72;95.07
28648;BME280;17137;51.494;-0.262;2023-08-20T02:01:53;50082.85;;;-145.72;95.25
28648;BME280;17137;51.494;-0.262;2023-08-20T02:02:24;50096.16;;;-145.72;95.27
28648;BME280;17137;51.494;-0.262;2023-08-20T02:02:54;50080.50;;;-145.72;95.22
28648;BME280;17137;51.494;-0.262;2023-08-20T02:03:25;50079.52;;;-145.72;95.13
28648;BME280;17137;51.494;-0.262;2023-08-20T02:03:55;50083.71;;;-145.72;95.19
28648;BME280;17137;51.494;-0.262;2023-08-20T02:04:25;50072.12;;;-145.72;95.10
28648;BME280;17137;51.494;-0.262;2023-08-20T02:04:56;50092.83;;;-145.72;95.64
28648;BME280;17137;51.494;-0.262;2023-08-20T02:05:26;50085.31;;;-145.72;96.03
28648;BME280;17137;51.494;-0.262;2023-08-20T02:05:56;50085.93;;;-145.72;96.03
28648;BME280;17137;51.494;-0.262;2023-08-20T02:06:26;50092.21;;;-145.72;95.92
28648;BME280;17137;51.494;-0.262;2023-08-20T02:06:57;50078.53;;;-145.72;95.64
28648;BME280;17137;51.494;-0.262;2023-08-20T02:07:27;50089.13;;;-145.72;95.67
28648;BME280;17137;51.494;-0.262;2023-08-20T02:07:57;50082.60;;;-145.72;95.95
28648;BME280;17137;51.494;-0.262;2023-08-20T02:08:28;50099.61;;;-145.72;96.37
28648;BME280;17137;51.494;-0.262;2023-08-20T02:08:58;50096.77;;;-145.72;96.12
28648;BME280;17137;51.494;-0.262;2023-08-20T02:09:33;50087.65;;;-145.72;95.93
28648;BME280;17137;51.494;-0.262;2023-08-20T02:10:05;50085.68;;;-145.72;95.80
28648;BME280;17137;51.494;-0.262;2023-08-20T02:10:35;50085.19;;;-145.72;95.49
28648;BME280;17137;51.494;-0.262;2023-08-20T02:11:06;50096.90;;;-145.72;95.70
28648;BME280;17137;51.494;-0.262;2023-08-20T02:11:36;50085.56;;;-145.72;95.76
28648;BME280;17137;51.494;-0.262;2023-08-20T02:12:07;50095.91;;;-145.72;95.75
28648;BME280;17137;51.494;-0.262;2023-08-20T02:12:37;50092.83;;;-145.72;96.11
28648;BME280;17137;51.494;-0.262;2023-08-20T02:13:07;50103.43;;;-145.72;96.09
28648;BME280;17137;51.494;-0.262;2023-08-20T02:13:38;50084.82;;;-145.72;95.95
28648;BME280;17137;51.494;-0.262;2023-08-20T02:14:08;50074.96;;;-145.72;95.90
28648;BME280;17137;51.494;-0.262;2023-08-20T02:14:39;50089.87;;;-145.72;96.12
28648;BME280;17137;51.494;-0.262;2023-08-20T02:15:10;50093.32;;;-145.72;96.12
28648;BME280;17137;51.494;-0.262;2023-08-20T02:15:40;50083.22;;;-145.72;95.91
28648;BME280;17137;51.494;-0.262;2023-08-20T02:16:10;50083.96;;;-145.72;95.82
28648;BME280;17137;51.494;-0.262;2023-08-20T02:16:40;50093.94;;;-145.72;96.87
28648;BME280;17137;51.494;-0.262;2023-08-20T02:17:11;50086.54;;;-145.72;96.67
28648;BME280;17137;51.494;-0.262;2023-08-20T02:17:42;50095.54;;;-145.72;96.44
28648;BME280;17137;51.494;-0.262;2023-08-20T02:18:12;50090.00;;;-145.72;96.28
28648;BME280;17137;51.494;-0.262;2023-08-20T02:18:42;50082.23;;;-145.72;96.13
28648;BME280;17137;51.494;-0.262;2023-08-20T02:19:12;50092.46;;;-145.72;95.97
28648;BME280;17137;51.494;-0.262;2023-08-20T02:19:43;50090.49;;;-145.72;96.07
28648;BME280;17137;51.494;-0.262;2023-08-20T02:20:13;50084.33;;;-145.72;96.15
28648;BME280;17137;51.494;-0.262;2023-08-20T02:20:43;50097.27;;;-145.72;96.23
28648;BME280;17137;51.494;-0.262;2023-08-20T02:21:14;50083.83;;;-145.72;96.11
28648;BME280;17137;51.494;-0.262;2023-08-20T02:21:44;50069.66;;;-145.72;96.05
28648;BME280;17137;51.494;-0.262;2023-08-20T02:22:15;50079.39;;;-145.72;96.01
28648;BME280;17137;51.494;-0.262;2023-08-20T02:22:45;50086.91;;;-145.72;96.04
28648;BME280;17137;51.494;-0.262;2023-08-20T02:23:16;50088.76;;;-145.72;96.17
28648;BME280;17137;51.494;-0.262;2023-08-20T02:23:47;50097.76;;;-145.72;96.28
28648;BME280;17137;51.494;-0.262;2023-08-20T02:24:17;50090.86;;;-145.72;97.05
28648;BME280;17137;51.494;-0.262;2023-08-20T02:24:47;50080.13;;;-145.72;97.09
28648;BME280;17137;51.494;-0.262;2023-08-20T02:25:17;50095.05;;;-145.72;96.97
28648;BME280;17137;51.494;-0.262;2023-08-20T02:25:48;50089.50;;;-145.72;96.81
28648;BME280;17137;51.494;-0.262;2023-08-20T02:26:18;50085.80;;;-145.72;96.90
28648;BME280;17137;51.494;-0.262;2023-08-20T02:26:48;50087.53;;;-145.72;96.95
28648;BME280;17137;51.494;-0.262;2023-08-20T02:27:19;50078.78;;;-145.72;96.91
28648;BME280;17137;51.494;-0.262;2023-08-20T02:27:49;50073.11;;;-145.72;96.64
28648;BME280;17137;51.494;-0.262;2023-08-20T02:28:19;50086.30;;;-145.72;96.56
28648;BME280;17137;51.494;-0.262;2023-08-20T02:28:49;50082.23;;;-145.72;96.47
28648;BME280;17137;51.494;-0.262;2023-08-20T02:29:20;50069.90;;;-145.72;96.31
28648;BME280;17137;51.494;-0.262;2023-08-20T02:29:50;50080.75;;;-145.72;96.23
28648;BME280;17137;51.494;-0.262;2023-08-20T02:30:20;50076.93;;;-145.72;96.35
28648;BME280;17137;51.494;-0.262;2023-08-20T02:30:50;50081.74;;;-145.72;96.35
28648;BME280;17137;51.494;-0.262;2023-08-20T02:31:21;50080.13;;;-145.72;96.57
28648;BME280;17137;51.494;-0.262;2023-08-20T02:31:51;50074.34;;;-145.72;96.48
28648;BME280;17137;51.494;-0.262;2023-08-20T02:32:21;50084.82;;;-145.72;96.47
28648;BME280;17137;51.494;-0.262;2023-08-20T02:32:52;50072.49;;;-145.72;96.45
28648;BME280;17137;51.494;-0.262;2023-08-20T02:33:22;50077.18;;;-145.72;96.38
28648;BME280;17137;51.494;-0.262;2023-08-20T02:33:52;50076.07;;;-145.72;96.30
28648;BME280;17137;51.494;-0.262;2023-08-20T02:34:23;50078.29;;;-145.72;96.20
28648;BME280;17137;51.494;-0.262;2023-08-20T02:34:53;50071.51;;;-145.72;96.09
28648;BME280;17137;51.494;-0.262;2023-08-20T02:35:24;50085.31;;;-145.72;95.93
28648;BME280;17137;51.494;-0.262;2023-08-20T02:35:54;50073.23;;;-145.72;95.67
28648;BME280;17137;51.494;-0.262;2023-08-20T02:36:29;50073.72;;;-145.72;95.79
28648;BME280;17137;51.494;-0.262;2023-08-20T02:37:00;50074.09;;;-145.72;95.42
28648;BME280;17137;51.494;-0.262;2023-08-20T02:37:30;50078.16;;;-145.72;95.64
28648;BME280;17137;51.494;-0.262;2023-08-20T02:38:00;50074.09;;;-145.72;95.69
28648;BME280;17137;51.494;-0.262;2023-08-20T02:38:31;50085.31;;;-145.72;96.13
28648;BME280;17137;51.494;-0.262;2023-08-20T02:39:01;50085.56;;;-145.72;96.13
28648;BME280;17137;51.494;-0.262;2023-08-20T02:39:31;50080.01;;;-145.72;96.27
28648;BME280;17137;51.494;-0.262;2023-08-20T02:40:02;50076.93;;;-145.72;96.22
28648;BME280;17137;51.494;-0.262;2023-08-20T02:40:32;50077.92;;;-145.72;96.14
28648;BME280;17137;51.494;-0.262;2023-08-20T02:41:03;50083.71;;;-145.72;96.12
28648;BME280;17137;51.494;-0.262;2023-08-20T02:41:33;50069.29;;;-145.72;95.93
28648;BME280;17137;51.494;-0.262;2023-08-20T02:42:09;50068.55;;;-145.72;95.72
28648;BME280;17137;51.494;-0.262;2023-08-20T02:42:39;50078.66;;;-145.72;95.83
28648;BME280;17137;51.494;-0.262;2023-08-20T02:43:10;50078.78;;;-145.72;95.76